sensor_id;sensor_type;location;lat;lon;timestamp;temperature;humidity
20432;DHT22;10375;49.136;10.366;2023-02-15T00:02:02;-0.80;99.90
20432;DHT22;10375;49.136;10.366;2023-02-15T00:04:29;-0.80;99.90
20432;DHT22;10375;49.136;10.366;2023-02-15T00:07:18;-0.80;99.90
20432;DHT22;10375;49.136;10.366;2023-02-15T00:09:46;-0.80;99.90
20432;DHT22;10375;49.136;10.366;2023-02-15T00:12:14;-0.80;99.90
20432;DHT22;10375;49.136;10.366;2023-02-15T00:14:41;-0.80;99.90
20432;DHT22;10375;49.136;10.366;2023-02-15T00:17:09;-0.80;99.90
20432;DHT22;10375;49.136;10.366;2023-02-15T00:19:36;-0.80;99.90
20432;DHT22;10375;49.136;10.366;2023-02-15T00:22:03;-0.80;99.90
20432;DHT22;10375;49.136;10.366;2023-02-15T00:24:30;-0.80;99.90
20432;DHT22;10375;49.136;10.366;2023-02-15T00:26:57;-0.80;99.90
20432;DHT22;10375;49.136;10.366;2023-02-15T00:29:24;-0.80;99.90
20432;DHT22;10375;49.136;10.366;2023-02-15T00:31:52;-0.70;99.90
20432;DHT22;10375;49.136;10.366;2023-02-15T00:34:24;-0.70;99.90
20432;DHT22;10375;49.136;10.366;2023-02-15T00:36:52;-0.80;99.90
20432;DHT22;10375;49.136;10.366;2023-02-15T00:39:19;-0.80;99.90
20432;DHT22;10375;49.136;10.366;2023-02-15T00:41:47;-0.80;99.90
20432;DHT22;10375;49.136;10.366;2023-02-15T00:44:15;-0.70;99.90
20432;DHT22;10375;49.136;10.366;2023-02-15T00:46:42;-0.70;99.90
20432;DHT22;10375;49.136;10.366;2023-02-15T00:49:09;-0.70;99.90
20432;DHT22;10375;49.136;10.366;2023-02-15T00:51:37;-0.70;99.90
20432;DHT22;10375;49.136;10.366;2023-02-15T00:54:05;-0.70;99.90
20432;DHT22;10375;49.136;10.366;2023-02-15T00:56:32;-0.60;99.90
20432;DHT22;10375;49.136;10.366;2023-02-15T00:58:59;-0.70;99.90
20432;DHT22;10375;49.136;10.366;2023-02-15T01:01:26;-0.80;99.90
20432;DHT22;10375;49.136;10.366;2023-02-15T01:03:53;-0.80;99.90
20432;DHT22;10375;49.136;10.366;2023-02-15T01:06:20;-0.80;99.90
20432;DHT22;10375;49.136;10.366;2023-02-15T01:08:48;-0.80;99.90
20432;DHT22;10375;49.136;10.366;2023-02-15T01:11:17;-0.80;99.90
20432;DHT22;10375;49.136;10.366;2023-02-15T01:13:54;-0.80;99.90
20432;DHT22;10375;49.136;10.366;2023-02-15T01:16:23;-0.80;99.90
20432;DHT22;10375;49.136;10.366;2023-02-15T01:18:50;-0.70;99.90
20432;DHT22;10375;49.136;10.366;2023-02-15T01:21:19;-0.70;99.90
20432;DHT22;10375;49.136;10.366;2023-02-15T01:23:47;-0.70;99.90
20432;DHT22;10375;49.136;10.366;2023-02-15T01:26:15;-0.80;99.90
20432;DHT22;10375;49.136;10.366;2023-02-15T01:28:42;-0.80;99.90
20432;DHT22;10375;49.136;10.366;2023-02-15T01:31:15;-0.80;99.90
20432;DHT22;10375;49.136;10.366;2023-02-15T01:33:44;-0.80;99.90
20432;DHT22;10375;49.136;10.366;2023-02-15T01:36:11;-0.70;99.90
20432;DHT22;10375;49.136;10.366;2023-02-15T01:38:39;-0.70;99.90
20432;DHT22;10375;49.136;10.366;2023-02-15T01:41:09;-0.80;99.90
20432;DHT22;10375;49.136;10.366;2023-02-15T01:43:55;-0.80;99.90
20432;DHT22;10375;49.136;10.366;2023-02-15T01:49:09;-0.90;99.90
20432;DHT22;10375;49.136;10.366;2023-02-15T01:51:39;-0.80;99.90
20432;DHT22;10375;49.136;10.366;2023-02-15T01:54:15;-0.80;99.90
20432;DHT22;10375;49.136;10.366;2023-02-15T01:56:45;-0.80;99.90
20432;DHT22;10375;49.136;10.366;2023-02-15T01:59:16;-0.90;99.90
20432;DHT22;10375;49.136;10.366;2023-02-15T02:01:45;-0.90;99.90
20432;DHT22;10375;49.136;10.366;2023-02-15T02:04:33;-0.90;99.90
20432;DHT22;10375;49.136;10.366;2023-02-15T02:07:02;-0.90;99.90
20432;DHT22;10375;49.136;10.366;2023-02-15T02:09:31;-1.00;99.90
20432;DHT22;10375;49.136;10.366;2023-02-15T02:11:59;-1.00;99.90
20432;DHT22;10375;49.136;10.366;2023-02-15T02:14:26;-0.90;99.90
20432;DHT22;10375;49.136;10.366;2023-02-15T02:17:11;-0.90;99.90
20432;DHT22;10375;49.136;10.366;2023-02-15T02:20:16;-0.90;99.90
20432;DHT22;10375;49.136;10.366;2023-02-15T02:39:55;-1.10;99.90
20432;DHT22;10375;49.136;10.366;2023-02-15T02:42:40;-1.00;99.90
20432;DHT22;10375;49.136;10.366;2023-02-15T02:45:20;-0.90;99.90
20432;DHT22;10375;49.136;10.366;2023-02-15T02:50:57;-1.00;99.90
20432;DHT22;10375;49.136;10.366;2023-02-15T02:53:24;-1.00;99.90
20432;DHT22;10375;49.136;10.366;2023-02-15T02:55:55;-0.90;99.90
20432;DHT22;10375;49.136;10.366;2023-02-15T02:58:37;-1.00;99.90
20432;DHT22;10375;49.136;10.366;2023-02-15T03:01:18;-0.90;99.90
20432;DHT22;10375;49.136;10.366;2023-02-15T03:04:23;-0.90;99.90
20432;DHT22;10375;49.136;10.366;2023-02-15T03:06:55;-0.90;99.90
20432;DHT22;10375;49.136;10.366;2023-02-15T03:09:29;-0.90;99.90
20432;DHT22;10375;49.136;10.366;2023-02-15T03:12:02;-0.90;99.90
20432;DHT22;10375;49.136;10.366;2023-02-15T03:14:31;-0.90;99.90
20432;DHT22;10375;49.136;10.366;2023-02-15T03:16:59;-0.90;99.90
20432;DHT22;10375;49.136;10.366;2023-02-15T03:19:31;-0.90;99.90
20432;DHT22;10375;49.136;10.366;2023-02-15T03:22:14;-0.90;99.90
20432;DHT22;10375;49.136;10.366;2023-02-15T03:25:17;-0.90;99.90
20432;DHT22;10375;49.136;10.366;2023-02-15T03:27:56;-1.00;99.90
20432;DHT22;10375;49.136;10.366;2023-02-15T03:30:25;-0.90;99.90
20432;DHT22;10375;49.136;10.366;2023-02-15T03:32:56;-0.80;99.90
20432;DHT22;10375;49.136;10.366;2023-02-15T03:35:32;-0.80;99.90
20432;DHT22;10375;49.136;10.366;2023-02-15T03:38:01;-0.90;99.90
20432;DHT22;10375;49.136;10.366;2023-02-15T03:40:41;-1.00;99.90
20432;DHT22;10375;49.136;10.366;2023-02-15T03:46:12;-1.00;99.90
20432;DHT22;10375;49.136;10.366;2023-02-15T03:48:44;-1.00;99.90
20432;DHT22;10375;49.136;10.366;2023-02-15T03:51:17;-1.10;99.90
20432;DHT22;10375;49.136;10.366;2023-02-15T03:54:10;-1.10;99.90
20432;DHT22;10375;49.136;10.366;2023-02-15T03:56:41;-1.00;99.90
20432;DHT22;10375;49.136;10.366;2023-02-15T03:59:08;-1.10;99.90
20432;DHT22;10375;49.136;10.366;2023-02-15T04:04:59;-1.10;99.90
20432;DHT22;10375;49.136;10.366;2023-02-15T04:07:26;-1.00;99.90
20432;DHT22;10375;49.136;10.366;2023-02-15T04:09:53;-1.00;99.90
20432;DHT22;10375;49.136;10.366;2023-02-15T04:12:38;-1.00;99.90
20432;DHT22;10375;49.136;10.366;2023-02-15T04:15:05;-1.00;99.90
20432;DHT22;10375;49.136;10.366;2023-02-15T04:17:51;-1.00;99.90
20432;DHT22;10375;49.136;10.366;2023-02-15T04:20:18;-0.90;99.90
20432;DHT22;10375;49.136;10.366;2023-02-15T04:23:06;-0.90;99.90
20432;DHT22;10375;49.136;10.366;2023-02-15T04:25:52;-0.90;99.90
20432;DHT22;10375;49.136;10.366;2023-02-15T04:28:19;-0.90;99.90
20432;DHT22;10375;49.136;10.366;2023-02-15T04:30:46;-0.90;99.90
20432;DHT22;10375;49.136;10.366;2023-02-15T04:33:13;-0.90;99.90
20432;DHT22;10375;49.136;10.366;2023-02-15T04:35:40;-0.80;99.90
20432;DHT22;10375;49.136;10.366;2023-02-15T04:38:07;-0.80;99.90
20432;DHT22;10375;49.136;10.366;2023-02-15T04:40:34;-0.80;99.90
20432;DHT22;10375;49.136;10.366;2023-02-15T04:43:01;-0.80;99.90
20432;DHT22;10375;49.136;10.366;2023-02-15T04:45:28;-0.90;99.90
20432;DHT22;10375;49.136;10.366;2023-02-15T04:47:55;-0.90;99.90
20432;DHT22;10375;49.136;10.366;2023-02-15T04:50:22;-0.90;99.90
20432;DHT22;10375;49.136;10.366;2023-02-15T04:52:49;-1.00;99.90
20432;DHT22;10375;49.136;10.366;2023-02-15T04:55:16;-0.90;99.90
20432;DHT22;10375;49.136;10.366;2023-02-15T04:57:43;-1.00;99.90
20432;DHT22;10375;49.136;10.366;2023-02-15T05:00:11;-1.00;99.90
20432;DHT22;10375;49.136;10.366;2023-02-15T05:02:38;-0.90;99.90
20432;DHT22;10375;49.136;10.366;2023-02-15T05:05:05;-0.90;99.90
20432;DHT22;10375;49.136;10.366;2023-02-15T05:07:32;-0.90;99.90
20432;DHT22;10375;49.136;10.366;2023-02-15T05:09:59;-1.00;99.90
20432;DHT22;10375;49.136;10.366;2023-02-15T05:12:26;-0.90;99.90
20432;DHT22;10375;49.136;10.366;2023-02-15T05:14:53;-0.80;99.90
20432;DHT22;10375;49.136;10.366;2023-02-15T05:17:20;-0.80;99.90
20432;DHT22;10375;49.136;10.366;2023-02-15T05:19:47;-0.90;99.90
20432;DHT22;10375;49.136;10.366;2023-02-15T05:22:14;-1.00;99.90
20432;DHT22;10375;49.136;10.366;2023-02-15T05:24:41;-1.00;99.90
20432;DHT22;10375;49.136;10.366;2023-02-15T05:27:26;-1.00;99.90
20432;DHT22;10375;49.136;10.366;2023-02-15T05:30:12;-1.00;99.90
20432;DHT22;10375;49.136;10.366;2023-02-15T05:32:40;-1.10;99.90
20432;DHT22;10375;49.136;10.366;2023-02-15T05:35:12;-1.10;99.90
20432;DHT22;10375;49.136;10.366;2023-02-15T05:37:39;-1.20;99.90
20432;DHT22;10375;49.136;10.366;2023-02-15T05:40:08;-1.20;99.90
20432;DHT22;10375;49.136;10.366;2023-02-15T05:42:35;-1.30;99.90
20432;DHT22;10375;49.136;10.366;2023-02-15T05:45:02;-1.30;99.90
20432;DHT22;10375;49.136;10.366;2023-02-15T05:47:30;-1.20;99.90
20432;DHT22;10375;49.136;10.366;2023-02-15T05:49:57;-1.20;99.90
20432;DHT22;10375;49.136;10.366;2023-02-15T05:52:24;-1.20;99.90
20432;DHT22;10375;49.136;10.366;2023-02-15T05:54:51;-1.30;99.90
20432;DHT22;10375;49.136;10.366;2023-02-15T05:57:18;-1.30;99.90
20432;DHT22;10375;49.136;10.366;2023-02-15T05:59:45;-1.30;99.90
20432;DHT22;10375;49.136;10.366;2023-02-15T06:02:12;-1.40;99.90
20432;DHT22;10375;49.136;10.366;2023-02-15T06:04:39;-1.40;99.90
20432;DHT22;10375;49.136;10.366;2023-02-15T06:07:06;-1.40;99.90
20432;DHT22;10375;49.136;10.366;2023-02-15T06:09:33;-1.40;99.90
20432;DHT22;10375;49.136;10.366;2023-02-15T06:12:00;-1.50;99.90
20432;DHT22;10375;49.136;10.366;2023-02-15T06:14:27;-1.50;99.90
20432;DHT22;10375;49.136;10.366;2023-02-15T06:16:54;-1.40;99.90
20432;DHT22;10375;49.136;10.366;2023-02-15T06:19:21;-1.30;99.90
20432;DHT22;10375;49.136;10.366;2023-02-15T06:21:49;-1.30;99.90
20432;DHT22;10375;49.136;10.366;2023-02-15T06:24:16;-1.20;99.90
20432;DHT22;10375;49.136;10.366;2023-02-15T06:26:43;-1.30;99.90
20432;DHT22;10375;49.136;10.366;2023-02-15T06:29:10;-1.30;99.90
20432;DHT22;10375;49.136;10.366;2023-02-15T06:31:38;-1.20;99.90
20432;DHT22;10375;49.136;10.366;2023-02-15T06:34:06;-1.10;99.90
20432;DHT22;10375;49.136;10.366;2023-02-15T06:36:33;-1.10;99.90
20432;DHT22;10375;49.136;10.366;2023-02-15T06:39:00;-1.10;99.90
20432;DHT22;10375;49.136;10.366;2023-02-15T06:41:27;-1.10;99.90
20432;DHT22;10375;49.136;10.366;2023-02-15T06:43:54;-1.10;99.90
20432;DHT22;10375;49.136;10.366;2023-02-15T06:46:21;-1.20;99.90
20432;DHT22;10375;49.136;10.366;2023-02-15T06:48:48;-1.20;99.90
20432;DHT22;10375;49.136;10.366;2023-02-15T06:51:15;-1.20;99.90
20432;DHT22;10375;49.136;10.366;2023-02-15T06:53:42;-1.10;99.90
20432;DHT22;10375;49.136;10.366;2023-02-15T06:56:11;-1.20;99.90
20432;DHT22;10375;49.136;10.366;2023-02-15T06:58:39;-1.30;99.90
20432;DHT22;10375;49.136;10.366;2023-02-15T07:01:07;-1.30;99.90
20432;DHT22;10375;49.136;10.366;2023-02-15T07:03:35;-1.20;99.90
20432;DHT22;10375;49.136;10.366;2023-02-15T07:06:04;-1.20;99.90
20432;DHT22;10375;49.136;10.366;2023-02-15T07:08:36;-1.00;99.90
20432;DHT22;10375;49.136;10.366;2023-02-15T07:11:04;-1.00;99.90
20432;DHT22;10375;49.136;10.366;2023-02-15T07:13:50;-1.00;99.90
20432;DHT22;10375;49.136;10.366;2023-02-15T07:16:19;-1.00;99.90
20432;DHT22;10375;49.136;10.366;2023-02-15T07:18:47;-1.00;99.90
20432;DHT22;10375;49.136;10.366;2023-02-15T07:21:14;-1.00;99.90
20432;DHT22;10375;49.136;10.366;2023-02-15T07:23:41;-1.00;99.90
20432;DHT22;10375;49.136;10.366;2023-02-15T07:26:08;-1.00;99.90
20432;DHT22;10375;49.136;10.366;2023-02-15T07:28:35;-0.90;99.90
20432;DHT22;10375;49.136;10.366;2023-02-15T07:31:04;-1.00;99.90
20432;DHT22;10375;49.136;10.366;2023-02-15T07:33:32;-0.90;99.90
20432;DHT22;10375;49.136;10.366;2023-02-15T07:36:01;-1.00;99.90
20432;DHT22;10375;49.136;10.366;2023-02-15T07:38:35;-0.90;99.90
20432;DHT22;10375;49.136;10.366;2023-02-15T07:41:04;-0.90;99.90
20432;DHT22;10375;49.136;10.366;2023-02-15T07:43:36;-0.90;99.90
20432;DHT22;10375;49.136;10.366;2023-02-15T07:46:07;-0.80;99.90
20432;DHT22;10375;49.136;10.366;2023-02-15T07:48:35;-0.80;99.90
20432;DHT22;10375;49.136;10.366;2023-02-15T07:51:05;-0.70;99.90
20432;DHT22;10375;49.136;10.366;2023-02-15T07:53:33;-0.70;99.90
20432;DHT22;10375;49.136;10.366;2023-02-15T07:56:06;-0.80;99.90
20432;DHT22;10375;49.136;10.366;2023-02-15T07:58:33;-0.90;99.90
20432;DHT22;10375;49.136;10.366;2023-02-15T08:01:28;-0.70;99.90
20432;DHT22;10375;49.136;10.366;2023-02-15T08:03:56;-0.80;99.90
20432;DHT22;10375;49.136;10.366;2023-02-15T08:06:26;-0.80;99.90
20432;DHT22;10375;49.136;10.366;2023-02-15T08:08:54;-0.80;99.90
20432;DHT22;10375;49.136;10.366;2023-02-15T08:11:26;-0.70;99.90
20432;DHT22;10375;49.136;10.366;2023-02-15T08:14:18;-0.60;99.90
20432;DHT22;10375;49.136;10.366;2023-02-15T08:16:47;-0.60;99.90
20432;DHT22;10375;49.136;10.366;2023-02-15T08:19:19;-0.70;99.90
20432;DHT22;10375;49.136;10.366;2023-02-15T08:21:48;-0.70;99.90
20432;DHT22;10375;49.136;10.366;2023-02-15T08:24:19;-0.50;99.90
20432;DHT22;10375;49.136;10.366;2023-02-15T08:26:46;-0.50;99.90
20432;DHT22;10375;49.136;10.366;2023-02-15T08:29:20;-0.40;99.90
20432;DHT22;10375;49.136;10.366;2023-02-15T08:31:50;-0.30;99.90
20432;DHT22;10375;49.136;10.366;2023-02-15T08:34:20;-0.20;99.90
20432;DHT22;10375;49.136;10.366;2023-02-15T08:36:47;-0.20;99.90
20432;DHT22;10375;49.136;10.366;2023-02-15T08:39:15;-0.10;99.90
20432;DHT22;10375;49.136;10.366;2023-02-15T08:41:44;-0.10;99.90
20432;DHT22;10375;49.136;10.366;2023-02-15T08:44:14;0.00;99.90
20432;DHT22;10375;49.136;10.366;2023-02-15T08:46:43;-0.10;99.90
20432;DHT22;10375;49.136;10.366;2023-02-15T08:49:17;-0.10;99.90
20432;DHT22;10375;49.136;10.366;2023-02-15T08:51:45;0.00;99.90
20432;DHT22;10375;49.136;10.366;2023-02-15T08:54:15;0.00;99.90
20432;DHT22;10375;49.136;10.366;2023-02-15T08:56:43;0.10;99.90
20432;DHT22;10375;49.136;10.366;2023-02-15T08:59:21;0.10;99.90
20432;DHT22;10375;49.136;10.366;2023-02-15T09:01:50;0.20;99.90
20432;DHT22;10375;49.136;10.366;2023-02-15T09:04:18;0.20;99.90
20432;DHT22;10375;49.136;10.366;2023-02-15T09:06:47;0.30;99.90
20432;DHT22;10375;49.136;10.366;2023-02-15T09:09:16;0.30;99.90
20432;DHT22;10375;49.136;10.366;2023-02-15T09:11:45;0.30;99.90
20432;DHT22;10375;49.136;10.366;2023-02-15T09:14:18;0.20;99.90
20432;DHT22;10375;49.136;10.366;2023-02-15T09:16:47;0.30;99.90
20432;DHT22;10375;49.136;10.366;2023-02-15T09:19:17;0.30;99.90
20432;DHT22;10375;49.136;10.366;2023-02-15T09:21:46;0.40;99.90
20432;DHT22;10375;49.136;10.366;2023-02-15T09:24:14;0.50;99.90
20432;DHT22;10375;49.136;10.366;2023-02-15T09:26:45;0.50;99.90
20432;DHT22;10375;49.136;10.366;2023-02-15T09:29:13;0.70;99.90
20432;DHT22;10375;49.136;10.366;2023-02-15T09:31:43;0.80;99.90
20432;DHT22;10375;49.136;10.366;2023-02-15T09:34:15;0.80;99.90
20432;DHT22;10375;49.136;10.366;2023-02-15T09:36:45;0.80;99.90
20432;DHT22;10375;49.136;10.366;2023-02-15T09:39:22;0.80;99.90
20432;DHT22;10375;49.136;10.366;2023-02-15T10:12:32;1.10;99.90
20432;DHT22;10375;49.136;10.366;2023-02-15T10:28:36;1.40;99.90
20432;DHT22;10375;49.136;10.366;2023-02-15T10:33:42;1.60;99.90
20432;DHT22;10375;49.136;10.366;2023-02-15T10:39:27;1.70;99.90
20432;DHT22;10375;49.136;10.366;2023-02-15T10:50:53;1.40;99.90
20432;DHT22;10375;49.136;10.366;2023-02-15T10:56:16;1.30;99.90
20432;DHT22;10375;49.136;10.366;2023-02-15T11:01:30;1.30;99.90
20432;DHT22;10375;49.136;10.366;2023-02-15T11:12:47;1.70;99.90
20432;DHT22;10375;49.136;10.366;2023-02-15T11:15:32;1.90;99.90
20432;DHT22;10375;49.136;10.366;2023-02-15T11:20:53;2.30;99.90
20432;DHT22;10375;49.136;10.366;2023-02-15T11:23:21;2.40;99.90
20432;DHT22;10375;49.136;10.366;2023-02-15T11:25:59;2.50;99.90
20432;DHT22;10375;49.136;10.366;2023-02-15T11:28:45;2.60;99.90
20432;DHT22;10375;49.136;10.366;2023-02-15T11:31:19;2.60;99.90
20432;DHT22;10375;49.136;10.366;2023-02-15T11:33:52;2.70;99.90
20432;DHT22;10375;49.136;10.366;2023-02-15T11:36:25;2.80;99.90
20432;DHT22;10375;49.136;10.366;2023-02-15T11:38:59;2.90;99.90
20432;DHT22;10375;49.136;10.366;2023-02-15T11:41:31;2.90;99.90
20432;DHT22;10375;49.136;10.366;2023-02-15T11:44:07;3.00;99.90
20432;DHT22;10375;49.136;10.366;2023-02-15T11:46:38;2.90;99.90
20432;DHT22;10375;49.136;10.366;2023-02-15T11:49:29;3.00;99.90
20432;DHT22;10375;49.136;10.366;2023-02-15T11:51:59;2.90;99.90
20432;DHT22;10375;49.136;10.366;2023-02-15T11:54:29;2.80;99.90
20432;DHT22;10375;49.136;10.366;2023-02-15T11:57:03;2.80;99.90
20432;DHT22;10375;49.136;10.366;2023-02-15T11:59:35;2.70;99.90
20432;DHT22;10375;49.136;10.366;2023-02-15T12:02:19;2.50;99.90
20432;DHT22;10375;49.136;10.366;2023-02-15T12:05:00;2.60;99.90
20432;DHT22;10375;49.136;10.366;2023-02-15T12:07:35;2.60;99.90
20432;DHT22;10375;49.136;10.366;2023-02-15T12:10:50;2.70;99.90
20432;DHT22;10375;49.136;10.366;2023-02-15T12:13:18;2.90;99.90
20432;DHT22;10375;49.136;10.366;2023-02-15T12:15:51;3.10;99.90
20432;DHT22;10375;49.136;10.366;2023-02-15T12:23:34;3.20;99.90
20432;DHT22;10375;49.136;10.366;2023-02-15T12:26:02;3.30;99.90
20432;DHT22;10375;49.136;10.366;2023-02-15T12:28:39;3.20;99.90
20432;DHT22;10375;49.136;10.366;2023-02-15T12:33:48;3.10;99.90
20432;DHT22;10375;49.136;10.366;2023-02-15T12:36:20;3.00;99.90
20432;DHT22;10375;49.136;10.366;2023-02-15T12:39:16;3.00;99.90
20432;DHT22;10375;49.136;10.366;2023-02-15T12:42:40;3.30;99.90
20432;DHT22;10375;49.136;10.366;2023-02-15T12:44:34;3.50;99.90
20432;DHT22;10375;49.136;10.366;2023-02-15T12:49:36;3.50;99.90
20432;DHT22;10375;49.136;10.366;2023-02-15T12:54:50;3.50;99.90
20432;DHT22;10375;49.136;10.366;2023-02-15T12:57:39;3.50;99.90
20432;DHT22;10375;49.136;10.366;2023-02-15T13:00:25;3.70;99.90
20432;DHT22;10375;49.136;10.366;2023-02-15T13:02:58;3.60;99.90
20432;DHT22;10375;49.136;10.366;2023-02-15T13:05:38;3.80;99.90
20432;DHT22;10375;49.136;10.366;2023-02-15T13:08:19;3.60;99.90
20432;DHT22;10375;49.136;10.366;2023-02-15T13:11:07;3.60;99.90
20432;DHT22;10375;49.136;10.366;2023-02-15T13:13:55;3.60;99.90
20432;DHT22;10375;49.136;10.366;2023-02-15T13:16:34;3.80;99.90
20432;DHT22;10375;49.136;10.366;2023-02-15T13:19:21;3.90;99.90
20432;DHT22;10375;49.136;10.366;2023-02-15T13:21:52;3.80;99.90
20432;DHT22;10375;49.136;10.366;2023-02-15T13:24:50;3.70;99.90
20432;DHT22;10375;49.136;10.366;2023-02-15T13:27:23;3.70;99.90
20432;DHT22;10375;49.136;10.366;2023-02-15T13:29:56;3.70;99.90
20432;DHT22;10375;49.136;10.366;2023-02-15T13:32:32;3.70;99.90
20432;DHT22;10375;49.136;10.366;2023-02-15T13:35:03;3.70;99.90
20432;DHT22;10375;49.136;10.366;2023-02-15T13:41:02;3.40;99.90
20432;DHT22;10375;49.136;10.366;2023-02-15T13:43:35;3.30;99.90
20432;DHT22;10375;49.136;10.366;2023-02-15T13:46:38;3.30;99.90
20432;DHT22;10375;49.136;10.366;2023-02-15T13:49:23;3.30;99.90
20432;DHT22;10375;49.136;10.366;2023-02-15T13:57:08;3.20;99.90
20432;DHT22;10375;49.136;10.366;2023-02-15T14:22:28;3.20;99.90
20432;DHT22;10375;49.136;10.366;2023-02-15T14:30:28;2.80;99.90
20432;DHT22;10375;49.136;10.366;2023-02-15T14:33:10;2.80;99.90
20432;DHT22;10375;49.136;10.366;2023-02-15T14:35:41;2.90;99.90
20432;DHT22;10375;49.136;10.366;2023-02-15T14:41:23;3.20;99.90
20432;DHT22;10375;49.136;10.366;2023-02-15T14:49:23;3.60;99.90
20432;DHT22;10375;49.136;10.366;2023-02-15T14:51:55;3.50;99.90
20432;DHT22;10375;49.136;10.366;2023-02-15T15:02:42;3.20;99.90
20432;DHT22;10375;49.136;10.366;2023-02-15T15:05:35;3.10;99.90
20432;DHT22;10375;49.136;10.366;2023-02-15T15:08:04;3.00;99.90
20432;DHT22;10375;49.136;10.366;2023-02-15T15:18:54;2.70;99.90
20432;DHT22;10375;49.136;10.366;2023-02-15T15:27:39;2.30;99.90
20432;DHT22;10375;49.136;10.366;2023-02-15T15:50:14;2.10;99.90
20432;DHT22;10375;49.136;10.366;2023-02-15T15:52:54;2.10;99.90
20432;DHT22;10375;49.136;10.366;2023-02-15T15:55:24;2.10;99.90
20432;DHT22;10375;49.136;10.366;2023-02-15T15:58:05;2.10;99.90
20432;DHT22;10375;49.136;10.366;2023-02-15T16:03:00;2.10;99.90
20432;DHT22;10375;49.136;10.366;2023-02-15T16:05:34;2.10;99.90
20432;DHT22;10375;49.136;10.366;2023-02-15T16:08:02;2.00;99.90
20432;DHT22;10375;49.136;10.366;2023-02-15T16:10:30;1.90;99.90
20432;DHT22;10375;49.136;10.366;2023-02-15T16:12:59;1.80;99.90
20432;DHT22;10375;49.136;10.366;2023-02-15T16:15:52;1.70;99.90
20432;DHT22;10375;49.136;10.366;2023-02-15T16:18:24;1.60;99.90
20432;DHT22;10375;49.136;10.366;2023-02-15T16:20:57;1.60;99.90
20432;DHT22;10375;49.136;10.366;2023-02-15T16:28:52;1.50;99.90
20432;DHT22;10375;49.136;10.366;2023-02-15T16:31:21;1.50;99.90
20432;DHT22;10375;49.136;10.366;2023-02-15T16:33:55;1.40;99.90
20432;DHT22;10375;49.136;10.366;2023-02-15T16:36:25;1.40;99.90
20432;DHT22;10375;49.136;10.366;2023-02-15T16:41:22;1.50;99.90
20432;DHT22;10375;49.136;10.366;2023-02-15T16:43:51;1.40;99.90
20432;DHT22;10375;49.136;10.366;2023-02-15T16:46:38;1.40;99.90
20432;DHT22;10375;49.136;10.366;2023-02-15T16:49:26;1.30;99.90
20432;DHT22;10375;49.136;10.366;2023-02-15T16:51:59;1.20;99.90
20432;DHT22;10375;49.136;10.366;2023-02-15T16:54:29;1.10;99.90
20432;DHT22;10375;49.136;10.366;2023-02-15T16:56:58;1.10;99.90
20432;DHT22;10375;49.136;10.366;2023-02-15T16:59:35;1.10;99.90
20432;DHT22;10375;49.136;10.366;2023-02-15T17:02:05;1.10;99.90
20432;DHT22;10375;49.136;10.366;2023-02-15T17:04:33;1.20;99.90
20432;DHT22;10375;49.136;10.366;2023-02-15T17:07:19;1.10;99.90
20432;DHT22;10375;49.136;10.366;2023-02-15T17:09:55;1.00;99.90
20432;DHT22;10375;49.136;10.366;2023-02-15T17:12:52;1.00;99.90
20432;DHT22;10375;49.136;10.366;2023-02-15T17:15:46;1.00;99.90
20432;DHT22;10375;49.136;10.366;2023-02-15T17:18:20;1.00;99.90
20432;DHT22;10375;49.136;10.366;2023-02-15T17:20:50;1.00;99.90
20432;DHT22;10375;49.136;10.366;2023-02-15T17:23:42;0.90;99.90
20432;DHT22;10375;49.136;10.366;2023-02-15T17:26:22;0.90;99.90
20432;DHT22;10375;49.136;10.366;2023-02-15T17:28:54;0.90;99.90
20432;DHT22;10375;49.136;10.366;2023-02-15T17:31:25;0.90;99.90
20432;DHT22;10375;49.136;10.366;2023-02-15T17:33:56;0.90;99.90
20432;DHT22;10375;49.136;10.366;2023-02-15T17:36:26;0.90;99.90
20432;DHT22;10375;49.136;10.366;2023-02-15T17:39:00;0.90;99.90
20432;DHT22;10375;49.136;10.366;2023-02-15T17:41:30;0.90;99.90
20432;DHT22;10375;49.136;10.366;2023-02-15T17:43:57;0.90;99.90
20432;DHT22;10375;49.136;10.366;2023-02-15T17:46:25;0.80;99.90
20432;DHT22;10375;49.136;10.366;2023-02-15T17:48:54;0.80;99.90
20432;DHT22;10375;49.136;10.366;2023-02-15T17:51:22;0.80;99.90
20432;DHT22;10375;49.136;10.366;2023-02-15T17:53:49;0.80;99.90
20432;DHT22;10375;49.136;10.366;2023-02-15T17:56:37;0.80;99.90
20432;DHT22;10375;49.136;10.366;2023-02-15T17:59:05;0.80;99.90
20432;DHT22;10375;49.136;10.366;2023-02-15T18:01:34;0.70;99.90
20432;DHT22;10375;49.136;10.366;2023-02-15T18:04:46;0.70;99.90
20432;DHT22;10375;49.136;10.366;2023-02-15T18:07:31;0.70;99.90
20432;DHT22;10375;49.136;10.366;2023-02-15T18:10:18;0.60;99.90
20432;DHT22;10375;49.136;10.366;2023-02-15T18:13:04;0.60;99.90
20432;DHT22;10375;49.136;10.366;2023-02-15T18:15:31;0.60;99.90
20432;DHT22;10375;49.136;10.366;2023-02-15T18:17:58;0.60;99.90
20432;DHT22;10375;49.136;10.366;2023-02-15T18:20:29;0.50;99.90
20432;DHT22;10375;49.136;10.366;2023-02-15T18:22:57;0.50;99.90
20432;DHT22;10375;49.136;10.366;2023-02-15T18:25:24;0.50;99.90
20432;DHT22;10375;49.136;10.366;2023-02-15T18:27:51;0.50;99.90
20432;DHT22;10375;49.136;10.366;2023-02-15T18:30:22;0.40;99.90
20432;DHT22;10375;49.136;10.366;2023-02-15T18:32:53;0.40;99.90
20432;DHT22;10375;49.136;10.366;2023-02-15T18:35:24;0.50;99.90
20432;DHT22;10375;49.136;10.366;2023-02-15T18:37:52;0.50;99.90
20432;DHT22;10375;49.136;10.366;2023-02-15T18:40:22;0.50;99.90
20432;DHT22;10375;49.136;10.366;2023-02-15T18:42:50;0.50;99.90
20432;DHT22;10375;49.136;10.366;2023-02-15T18:45:20;0.50;99.90
20432;DHT22;10375;49.136;10.366;2023-02-15T18:47:48;0.50;99.90
20432;DHT22;10375;49.136;10.366;2023-02-15T18:50:17;0.50;99.90
20432;DHT22;10375;49.136;10.366;2023-02-15T18:52:48;0.50;99.90
20432;DHT22;10375;49.136;10.366;2023-02-15T18:55:26;0.50;99.90
20432;DHT22;10375;49.136;10.366;2023-02-15T18:57:55;0.50;99.90
20432;DHT22;10375;49.136;10.366;2023-02-15T19:00:28;0.50;99.90
20432;DHT22;10375;49.136;10.366;2023-02-15T19:02:55;0.50;99.90
20432;DHT22;10375;49.136;10.366;2023-02-15T19:05:23;0.40;99.90
20432;DHT22;10375;49.136;10.366;2023-02-15T19:07:51;0.40;99.90
20432;DHT22;10375;49.136;10.366;2023-02-15T19:10:21;0.40;99.90
20432;DHT22;10375;49.136;10.366;2023-02-15T19:12:49;0.40;99.90
20432;DHT22;10375;49.136;10.366;2023-02-15T19:15:20;0.40;99.90
20432;DHT22;10375;49.136;10.366;2023-02-15T19:17:48;0.40;99.90
20432;DHT22;10375;49.136;10.366;2023-02-15T19:20:20;0.30;99.90
20432;DHT22;10375;49.136;10.366;2023-02-15T19:22:49;0.30;99.90
20432;DHT22;10375;49.136;10.366;2023-02-15T19:25:26;0.30;99.90
20432;DHT22;10375;49.136;10.366;2023-02-15T19:27:54;0.30;99.90
20432;DHT22;10375;49.136;10.366;2023-02-15T19:30:25;0.30;99.90
20432;DHT22;10375;49.136;10.366;2023-02-15T19:32:58;0.30;99.90